createdAt,value
2023-04-29T00:02:04.146Z,1.28
2023-04-29T00:04:31.326Z,1.24
2023-04-29T00:06:58.581Z,1.23
2023-04-29T00:09:25.432Z,1.20
2023-04-29T00:11:52.564Z,1.19
2023-04-29T00:14:19.466Z,1.19
2023-04-29T00:16:47.162Z,1.20
2023-04-29T00:19:14.057Z,1.16
2023-04-29T00:21:41.480Z,1.14
2023-04-29T00:24:08.358Z,1.12
2023-04-29T00:26:35.530Z,1.10
2023-04-29T00:29:02.377Z,1.09
2023-04-29T00:31:29.565Z,1.06
2023-04-29T00:33:56.447Z,1.03
2023-04-29T00:36:23.559Z,0.97
2023-04-29T00:38:50.398Z,0.94
2023-04-29T00:41:17.599Z,0.92
2023-04-29T00:43:44.541Z,0.90
2023-04-29T00:46:11.792Z,0.96
2023-04-29T00:48:39.499Z,0.99
2023-04-29T00:51:07.106Z,0.97
2023-04-29T00:53:35.105Z,0.97
2023-04-29T00:56:03.421Z,0.92
2023-04-29T00:58:33.649Z,0.88
2023-04-29T01:01:04.396Z,0.84
2023-04-29T01:03:32.605Z,0.81
2023-04-29T01:06:14.900Z,0.75
2023-04-29T01:09:00.462Z,0.72
2023-04-29T01:11:34.819Z,0.68
2023-04-29T01:14:03.489Z,0.66
2023-04-29T01:16:48.838Z,0.62
2023-04-29T01:20:00.215Z,0.58
2023-04-29T01:22:27.562Z,0.55
2023-04-29T01:24:55.099Z,0.52
2023-04-29T01:27:58.829Z,0.48
2023-04-29T01:30:53.864Z,0.47
2023-04-29T01:33:40.592Z,0.47
2023-04-29T01:36:46.526Z,0.48
2023-04-29T01:39:56.779Z,0.48
2023-04-29T01:42:46.052Z,0.46
2023-04-29T01:45:19.241Z,0.47
2023-04-29T01:47:47.567Z,0.48
2023-04-29T01:50:14.808Z,0.47
2023-04-29T01:52:41.787Z,0.50
2023-04-29T01:55:09.663Z,0.51
2023-04-29T01:57:36.589Z,0.50
2023-04-29T02:00:04.898Z,0.52
2023-04-29T02:02:31.910Z,0.46
2023-04-29T02:04:59.498Z,0.44
2023-04-29T02:07:26.561Z,0.41
2023-04-29T02:09:53.926Z,0.40
2023-04-29T02:12:21.022Z,0.38
2023-04-29T02:14:48.134Z,0.37
2023-04-29T02:17:15.066Z,0.37
2023-04-29T02:19:42.206Z,0.35
2023-04-29T02:22:09.372Z,0.31
2023-04-29T02:24:36.828Z,0.28
2023-04-29T02:27:05.939Z,0.25
2023-04-29T02:29:33.491Z,0.23
2023-04-29T02:32:00.373Z,0.19
2023-04-29T02:34:27.767Z,0.17
2023-04-29T02:36:54.695Z,0.16
2023-04-29T02:39:21.916Z,0.14
2023-04-29T02:41:49.201Z,0.15
2023-04-29T02:44:16.397Z,0.17
2023-04-29T02:46:45.762Z,0.19
2023-04-29T02:49:14.117Z,0.21
2023-04-29T02:51:41.546Z,0.23
2023-04-29T02:54:08.801Z,0.24
2023-04-29T02:56:35.688Z,0.25
2023-04-29T02:59:02.831Z,0.27
2023-04-29T03:01:29.647Z,0.26
2023-04-29T03:03:57.646Z,0.24
2023-04-29T03:06:24.628Z,0.27
2023-04-29T03:08:53.071Z,0.30
2023-04-29T03:11:20.792Z,0.31
2023-04-29T03:13:48.249Z,0.32
2023-04-29T03:16:17.006Z,0.34
2023-04-29T03:18:44.242Z,0.32
2023-04-29T03:23:42.866Z,0.49
2023-04-29T03:26:10.581Z,0.54
2023-04-29T03:28:37.504Z,0.61
2023-04-29T03:31:04.926Z,0.69
2023-04-29T03:33:31.932Z,0.77
2023-04-29T03:35:59.165Z,0.85
2023-04-29T03:38:28.615Z,0.96
2023-04-29T03:40:55.973Z,1.08
2023-04-29T03:43:22.868Z,1.18
2023-04-29T03:45:50.105Z,1.27
2023-04-29T03:48:16.988Z,1.31
2023-04-29T03:50:44.298Z,1.40
2023-04-29T03:53:12.120Z,1.45
2023-04-29T03:55:39.351Z,1.55
2023-04-29T03:58:06.332Z,1.64
2023-04-29T04:00:33.954Z,1.78
2023-04-29T04:03:03.516Z,1.93
2023-04-29T04:05:32.341Z,2.15
2023-04-29T04:08:00.639Z,2.36
2023-04-29T04:10:28.586Z,2.52
2023-04-29T04:12:55.624Z,2.69
2023-04-29T04:15:22.792Z,2.83
2023-04-29T04:17:49.633Z,3.01
2023-04-29T04:20:17.457Z,3.16
2023-04-29T04:22:44.295Z,3.28
2023-04-29T04:25:11.482Z,3.45
2023-04-29T04:27:38.342Z,3.61
2023-04-29T04:30:06.145Z,3.80
2023-04-29T04:32:33.073Z,3.98
2023-04-29T04:35:00.254Z,4.13
2023-04-29T04:37:27.128Z,4.31
2023-04-29T04:39:54.496Z,4.49
2023-04-29T04:42:22.784Z,4.64
2023-04-29T04:44:49.963Z,4.84
2023-04-29T04:47:16.794Z,5.09
2023-04-29T04:49:44.505Z,5.35
2023-04-29T04:52:11.976Z,5.56
2023-04-29T04:54:39.129Z,5.77
2023-04-29T04:57:06.360Z,5.97
2023-04-29T04:59:34.356Z,6.16
2023-04-29T05:02:01.217Z,6.37
2023-04-29T05:04:28.603Z,6.60
2023-04-29T05:06:55.640Z,6.84
2023-04-29T05:09:22.756Z,7.10
2023-04-29T05:11:49.631Z,7.31
2023-04-29T05:14:17.273Z,7.53
2023-04-29T05:16:45.473Z,7.77
2023-04-29T05:19:12.862Z,8.01
2023-04-29T05:21:39.730Z,8.13
2023-04-29T05:24:07.410Z,8.20
2023-04-29T05:26:34.281Z,8.24
2023-04-29T05:29:01.583Z,8.36
2023-04-29T05:31:28.730Z,8.50
2023-04-29T05:33:55.985Z,8.66
2023-04-29T05:36:22.824Z,8.82
2023-04-29T05:38:49.937Z,8.93
2023-04-29T05:41:16.767Z,9.04
2023-04-29T05:43:44.011Z,9.16
2023-04-29T05:46:10.946Z,9.25
2023-04-29T05:48:38.095Z,9.33
2023-04-29T05:51:04.986Z,9.43
2023-04-29T05:53:33.330Z,9.55
2023-04-29T05:56:00.182Z,9.72
2023-04-29T05:58:27.349Z,9.93
2023-04-29T06:00:54.178Z,10.19
2023-04-29T06:03:21.524Z,10.50
2023-04-29T06:05:49.110Z,10.81
2023-04-29T06:08:16.783Z,11.07
2023-04-29T06:10:43.586Z,11.37
2023-04-29T06:13:10.848Z,11.68
2023-04-29T06:15:38.146Z,11.99
2023-04-29T06:18:05.336Z,12.42
2023-04-29T06:20:36.861Z,12.86
2023-04-29T06:23:05.475Z,13.30
2023-04-29T06:25:32.355Z,13.61
2023-04-29T06:27:59.675Z,13.91
2023-04-29T06:30:26.782Z,14.18
2023-04-29T06:32:54.041Z,14.46
2023-04-29T06:35:20.988Z,14.59
2023-04-29T06:37:48.153Z,14.68
2023-04-29T06:40:15.054Z,14.77
2023-04-29T06:42:43.784Z,14.97
2023-04-29T06:45:11.092Z,15.34
2023-04-29T06:47:38.408Z,15.88
2023-04-29T06:50:05.769Z,16.41
2023-04-29T06:52:33.531Z,17.05
2023-04-29T06:55:00.820Z,17.72
2023-04-29T06:57:27.916Z,18.35
2023-04-29T06:59:55.037Z,19.06
2023-04-29T07:02:22.337Z,19.67
2023-04-29T07:04:50.377Z,19.85
2023-04-29T07:07:17.612Z,19.88
2023-04-29T07:09:44.456Z,20.00
2023-04-29T07:12:11.570Z,19.77
2023-04-29T07:14:38.693Z,19.35
2023-04-29T07:17:06.074Z,19.03
2023-04-29T07:19:33.020Z,18.86
2023-04-29T07:22:00.191Z,18.21
2023-04-29T07:24:27.165Z,18.13
2023-04-29T07:26:54.327Z,18.25
2023-04-29T07:29:21.207Z,18.51
2023-04-29T07:31:48.436Z,18.84
2023-04-29T07:34:15.259Z,19.12
2023-04-29T07:36:42.453Z,19.40
2023-04-29T07:39:09.458Z,19.56
2023-04-29T07:41:36.649Z,19.62
2023-04-29T07:44:03.563Z,19.69
2023-04-29T07:46:31.527Z,19.91
2023-04-29T07:48:58.475Z,20.38
2023-04-29T07:51:25.612Z,20.95
2023-04-29T07:53:52.474Z,21.30
2023-04-29T07:56:20.208Z,21.12
2023-04-29T07:58:47.234Z,21.37
2023-04-29T08:01:17.710Z,21.81
2023-04-29T08:03:45.383Z,22.34
2023-04-29T08:06:12.988Z,22.77
2023-04-29T08:08:40.178Z,23.39
2023-04-29T08:11:07.552Z,23.94
2023-04-29T08:13:34.407Z,24.43
2023-04-29T08:16:01.561Z,24.81
2023-04-29T08:18:28.527Z,24.51
2023-04-29T08:20:55.811Z,23.84
2023-04-29T08:23:22.699Z,23.92
2023-04-29T08:25:52.305Z,24.21
2023-04-29T08:28:19.717Z,23.93
2023-04-29T08:30:46.987Z,23.88
2023-04-29T08:33:14.593Z,24.06
2023-04-29T08:35:42.241Z,23.80
2023-04-29T08:38:10.075Z,24.17
2023-04-29T08:40:43.229Z,24.54
2023-04-29T08:43:10.575Z,24.58
2023-04-29T08:45:39.778Z,23.73
2023-04-29T08:48:10.520Z,23.25
2023-04-29T08:50:40.401Z,23.20
2023-04-29T08:53:08.281Z,23.21
2023-04-29T08:55:46.179Z,23.24
2023-04-29T08:58:14.505Z,23.11
2023-04-29T09:00:43.276Z,23.10
2023-04-29T09:03:33.530Z,22.96
2023-04-29T09:06:02.117Z,22.71
2023-04-29T09:08:30.068Z,22.84
2023-04-29T09:10:58.518Z,23.39
2023-04-29T09:13:31.477Z,24.36
2023-04-29T09:15:59.130Z,24.02
2023-04-29T09:18:46.752Z,23.69
2023-04-29T09:21:21.732Z,22.45
2023-04-29T09:23:54.519Z,22.08
2023-04-29T09:26:22.834Z,22.06
2023-04-29T09:29:09.352Z,21.47
2023-04-29T09:31:39.625Z,21.58
2023-04-29T09:34:06.979Z,21.45
2023-04-29T09:36:38.753Z,21.50
2023-04-29T09:39:11.588Z,21.40
2023-04-29T09:42:03.816Z,21.07
2023-04-29T09:44:37.978Z,20.57
2023-04-29T09:49:45.367Z,20.60
2023-04-29T09:52:15.154Z,20.33
2023-04-29T09:54:43.489Z,20.44
2023-04-29T09:57:12.562Z,20.18
2023-04-29T09:59:41.188Z,20.01
2023-04-29T10:02:15.730Z,19.97
2023-04-29T10:04:45.868Z,20.23
2023-04-29T10:07:17.800Z,20.04
2023-04-29T10:09:48.980Z,19.94
2023-04-29T10:12:18.658Z,20.43
2023-04-29T10:14:55.315Z,21.23
2023-04-29T10:17:47.269Z,21.59
2023-04-29T10:20:24.320Z,20.09
2023-04-29T10:22:56.722Z,19.04
2023-04-29T10:25:24.839Z,18.43
2023-04-29T10:27:53.752Z,18.33
2023-04-29T10:30:22.034Z,18.37
2023-04-29T10:32:52.507Z,18.74
2023-04-29T10:35:23.468Z,19.35
2023-04-29T10:37:53.048Z,19.99
2023-04-29T10:40:31.711Z,20.24
2023-04-29T10:42:59.736Z,20.43
2023-04-29T10:45:31.866Z,20.83
2023-04-29T10:48:02.927Z,21.20
2023-04-29T10:50:31.548Z,21.63
2023-04-29T10:53:02.147Z,22.13
2023-04-29T10:55:29.407Z,21.91
2023-04-29T10:57:57.362Z,21.48
2023-04-29T11:00:32.843Z,21.13
2023-04-29T11:03:01.748Z,20.62
2023-04-29T11:05:36.812Z,20.02
2023-04-29T11:08:13.261Z,19.48
2023-04-29T11:10:43.780Z,19.34
2023-04-29T11:13:30.068Z,19.14
2023-04-29T11:16:11.302Z,18.94
2023-04-29T11:19:17.621Z,18.78
2023-04-29T11:21:47.260Z,18.83
2023-04-29T11:24:18.087Z,18.96
2023-04-29T11:26:46.352Z,18.95
2023-04-29T11:29:14.755Z,18.42
2023-04-29T11:31:42.055Z,18.05
2023-04-29T11:34:09.176Z,17.95
2023-04-29T11:36:36.762Z,17.97
2023-04-29T11:39:05.149Z,18.03
2023-04-29T11:41:32.191Z,18.07
2023-04-29T11:44:00.354Z,18.13
2023-04-29T11:46:31.035Z,17.93
2023-04-29T11:49:00.128Z,17.97
2023-04-29T11:51:28.086Z,18.11
2023-04-29T11:53:58.011Z,18.06
2023-04-29T11:56:25.688Z,17.96
2023-04-29T11:58:59.182Z,17.96
2023-04-29T12:01:27.227Z,18.06
2023-04-29T12:04:00.028Z,18.27
2023-04-29T12:06:30.562Z,18.86
2023-04-29T12:09:01.369Z,19.59
2023-04-29T12:11:29.014Z,20.38
2023-04-29T12:13:58.200Z,20.60
2023-04-29T12:16:25.916Z,20.31
2023-04-29T12:18:53.573Z,19.71
2023-04-29T12:21:22.793Z,19.52
2023-04-29T12:23:51.793Z,19.24
2023-04-29T12:26:21.097Z,18.85
2023-04-29T12:28:55.603Z,18.72
2023-04-29T12:31:22.899Z,18.26
2023-04-29T12:33:55.349Z,17.99
2023-04-29T12:36:23.474Z,17.92
2023-04-29T12:38:50.751Z,17.77
2023-04-29T12:41:17.687Z,17.78
2023-04-29T12:43:44.975Z,17.86
2023-04-29T12:46:15.260Z,18.02
2023-04-29T12:48:43.861Z,18.13
2023-04-29T12:51:11.688Z,18.20
2023-04-29T12:53:39.426Z,18.31
2023-04-29T12:56:06.891Z,18.37
2023-04-29T12:58:35.082Z,18.41
2023-04-29T13:01:02.152Z,18.46
2023-04-29T13:03:29.563Z,18.53
2023-04-29T13:05:57.323Z,18.57
2023-04-29T13:08:24.622Z,18.49
2023-04-29T13:10:51.692Z,18.36
2023-04-29T13:13:18.858Z,18.19
2023-04-29T13:15:45.776Z,17.85
2023-04-29T13:18:12.961Z,17.52
2023-04-29T13:20:42.329Z,17.34
2023-04-29T13:23:10.789Z,17.24
2023-04-29T13:25:37.867Z,17.08
2023-04-29T13:28:07.925Z,16.92
2023-04-29T13:30:35.162Z,16.93
2023-04-29T13:33:09.766Z,16.91
2023-04-29T13:35:41.612Z,16.94
2023-04-29T13:38:09.241Z,16.90
2023-04-29T13:40:39.424Z,16.88
2023-04-29T13:43:15.399Z,16.93
2023-04-29T13:45:47.839Z,16.95
2023-04-29T13:48:26.253Z,16.91
2023-04-29T13:54:17.609Z,16.77
2023-04-29T14:01:55.326Z,16.80
2023-04-29T14:04:07.260Z,16.91
2023-04-29T14:06:34.875Z,16.98
2023-04-29T14:09:03.925Z,16.98
2023-04-29T14:11:31.189Z,16.97
2023-04-29T14:13:58.255Z,16.99
2023-04-29T14:16:25.210Z,17.02
2023-04-29T14:18:52.553Z,17.01
2023-04-29T14:21:22.510Z,16.99
2023-04-29T14:23:52.691Z,17.00
2023-04-29T14:28:57.678Z,17.06
2023-04-29T14:31:28.080Z,17.10
2023-04-29T14:33:58.838Z,17.04
2023-04-29T14:36:26.755Z,16.96
2023-04-29T14:38:54.391Z,16.84
2023-04-29T14:41:24.543Z,16.77
2023-04-29T14:43:51.938Z,16.74
2023-04-29T14:46:19.141Z,16.67
2023-04-29T14:48:46.379Z,16.65
2023-04-29T14:51:13.259Z,16.71
2023-04-29T14:53:40.506Z,16.66
2023-04-29T14:56:08.070Z,16.68
2023-04-29T14:58:35.484Z,16.74
2023-04-29T15:01:02.451Z,16.69
2023-04-29T15:03:29.715Z,16.66
2023-04-29T15:05:58.954Z,16.58
2023-04-29T15:08:26.342Z,16.56
2023-04-29T15:10:53.357Z,16.61
2023-04-29T15:13:20.492Z,16.76
2023-04-29T15:15:47.672Z,16.93
2023-04-29T15:18:14.960Z,17.08
2023-04-29T15:20:42.568Z,17.17
2023-04-29T15:23:10.313Z,17.23
2023-04-29T15:25:38.390Z,17.21
2023-04-29T15:28:05.949Z,17.17
2023-04-29T15:30:33.026Z,17.22
2023-04-29T15:33:00.442Z,17.28
2023-04-29T15:35:27.769Z,17.36
2023-04-29T15:37:55.027Z,17.44
2023-04-29T15:40:22.068Z,17.53
2023-04-29T15:42:49.243Z,17.54
2023-04-29T15:45:17.071Z,17.49
2023-04-29T15:47:44.349Z,17.45
2023-04-29T15:50:11.649Z,17.47
2023-04-29T15:52:38.885Z,17.40
2023-04-29T15:55:07.157Z,17.25
2023-04-29T15:57:41.277Z,17.01
2023-04-29T16:00:09.035Z,16.77
2023-04-29T16:02:36.418Z,16.59
2023-04-29T16:05:03.674Z,16.49
2023-04-29T16:07:31.300Z,16.46
2023-04-29T16:09:58.208Z,16.40
2023-04-29T16:12:25.586Z,16.36
2023-04-29T16:14:52.653Z,16.39
2023-04-29T16:17:19.797Z,16.38
2023-04-29T16:19:46.706Z,16.33
2023-04-29T16:22:13.960Z,16.19
2023-04-29T16:24:40.922Z,16.05
2023-04-29T16:27:08.173Z,15.96
2023-04-29T16:29:35.098Z,15.88
2023-04-29T16:32:02.376Z,15.83
2023-04-29T16:34:30.619Z,15.74
2023-04-29T16:36:58.800Z,15.69
2023-04-29T16:39:33.460Z,15.61
2023-04-29T16:42:01.533Z,15.55
2023-04-29T16:44:28.417Z,15.47
2023-04-29T16:46:55.624Z,15.41
2023-04-29T16:49:28.307Z,15.36
2023-04-29T16:51:55.540Z,15.36
2023-04-29T16:54:23.270Z,15.32
2023-04-29T16:56:51.322Z,15.31
2023-04-29T16:59:18.318Z,15.24
2023-04-29T17:01:45.808Z,15.18
2023-04-29T17:04:12.778Z,15.12
2023-04-29T17:06:40.965Z,15.10
2023-04-29T17:09:08.000Z,15.09
2023-04-29T17:11:35.104Z,15.05
2023-04-29T17:14:02.019Z,15.07
2023-04-29T17:16:30.810Z,15.07
2023-04-29T17:18:57.841Z,15.07
2023-04-29T17:21:26.072Z,15.01
2023-04-29T17:23:53.466Z,14.99
2023-04-29T17:26:21.340Z,14.97
2023-04-29T17:28:48.422Z,14.93
2023-04-29T17:31:15.855Z,14.87
2023-04-29T17:33:54.734Z,14.87
2023-04-29T17:36:24.690Z,14.85
2023-04-29T17:38:51.566Z,14.81
2023-04-29T17:41:18.699Z,14.76
2023-04-29T17:43:45.547Z,14.64
2023-04-29T17:46:12.931Z,14.58
2023-04-29T17:48:39.751Z,14.53
2023-04-29T17:51:06.885Z,14.48
2023-04-29T17:53:33.842Z,14.43
2023-04-29T17:56:01.003Z,14.36
2023-04-29T17:58:29.163Z,14.31
2023-04-29T18:00:56.783Z,14.22
2023-04-29T18:03:24.014Z,14.13
2023-04-29T18:05:51.328Z,14.07
2023-04-29T18:08:18.173Z,14.02
2023-04-29T18:10:45.578Z,13.95
2023-04-29T18:13:12.575Z,13.91
2023-04-29T18:15:39.800Z,13.86
2023-04-29T18:18:07.050Z,13.83
2023-04-29T18:20:34.539Z,13.80
2023-04-29T18:23:01.756Z,13.76
2023-04-29T18:25:28.895Z,13.76
2023-04-29T18:28:07.588Z,13.73
2023-04-29T18:30:43.024Z,13.66
2023-04-29T18:33:09.967Z,13.57
2023-04-29T18:35:37.855Z,13.48
2023-04-29T18:38:04.780Z,13.39
2023-04-29T18:40:32.393Z,13.35
2023-04-29T18:42:59.218Z,13.31
2023-04-29T18:45:26.468Z,13.27
2023-04-29T18:47:53.475Z,13.26
2023-04-29T18:50:20.725Z,13.24
2023-04-29T18:52:47.670Z,13.23
2023-04-29T18:55:15.128Z,13.17
2023-04-29T18:57:42.310Z,13.11
2023-04-29T19:00:10.179Z,13.06
2023-04-29T19:02:38.372Z,13.04
2023-04-29T19:05:09.465Z,13.01
2023-04-29T19:07:36.376Z,13.01
2023-04-29T19:10:04.147Z,13.02
2023-04-29T19:12:31.157Z,13.02
2023-04-29T19:14:58.848Z,13.00
2023-04-29T19:17:25.881Z,12.99
2023-04-29T19:19:53.364Z,12.95
2023-04-29T19:22:20.829Z,12.98
2023-04-29T19:24:48.070Z,12.99
2023-04-29T19:27:14.949Z,13.00
2023-04-29T19:29:42.190Z,13.05
2023-04-29T19:32:09.019Z,13.08
2023-04-29T19:34:36.483Z,13.13
2023-04-29T19:37:04.089Z,13.16
2023-04-29T19:39:31.440Z,13.15
2023-04-29T19:41:58.347Z,13.17
2023-04-29T19:44:25.610Z,13.19
2023-04-29T19:46:53.702Z,13.16
2023-04-29T19:49:21.262Z,13.04
2023-04-29T19:51:48.177Z,12.88
2023-04-29T19:54:15.390Z,12.78
2023-04-29T19:56:42.259Z,12.67
2023-04-29T19:59:09.408Z,12.54
2023-04-29T20:01:36.450Z,12.47
2023-04-29T20:04:03.687Z,12.43
2023-04-29T20:06:32.212Z,12.41
2023-04-29T20:08:59.413Z,12.39
2023-04-29T20:11:26.404Z,12.36
2023-04-29T20:13:53.685Z,12.40
2023-04-29T20:16:20.705Z,12.33
2023-04-29T20:18:48.044Z,12.22
2023-04-29T20:21:14.881Z,12.13
2023-04-29T20:23:42.089Z,12.04
2023-04-29T20:26:09.003Z,11.94
2023-04-29T20:28:36.140Z,11.84
2023-04-29T20:31:03.015Z,11.70
2023-04-29T20:33:30.274Z,11.62
2023-04-29T20:35:59.527Z,11.58
2023-04-29T20:38:27.245Z,11.49
2023-04-29T20:40:54.488Z,11.41
2023-04-29T20:43:21.624Z,11.36
2023-04-29T20:45:48.717Z,11.31
2023-04-29T20:48:16.282Z,11.25
2023-04-29T20:50:43.291Z,11.20
2023-04-29T20:53:11.110Z,11.16
2023-04-29T20:55:37.960Z,11.14
2023-04-29T20:58:05.073Z,11.10
2023-04-29T21:00:31.998Z,11.01
2023-04-29T21:02:59.209Z,10.97
2023-04-29T21:05:26.106Z,10.93
2023-04-29T21:07:53.381Z,10.88
2023-04-29T21:10:20.964Z,10.81
2023-04-29T21:12:48.122Z,10.72
2023-04-29T21:15:15.365Z,10.61
2023-04-29T21:17:42.534Z,10.51
2023-04-29T21:20:09.688Z,10.40
2023-04-29T21:22:36.777Z,10.25
2023-04-29T21:25:05.425Z,10.14
2023-04-29T21:27:32.600Z,10.00
2023-04-29T21:29:59.438Z,9.83
2023-04-29T21:32:26.859Z,9.69
2023-04-29T21:34:53.742Z,9.61
2023-04-29T21:37:20.943Z,9.54
2023-04-29T21:39:47.808Z,9.47
2023-04-29T21:42:15.283Z,9.43
2023-04-29T21:44:42.200Z,9.37
2023-04-29T21:47:09.426Z,9.29
2023-04-29T21:49:36.661Z,9.23
2023-04-29T21:52:04.273Z,9.10
2023-04-29T21:54:31.195Z,9.00
2023-04-29T21:56:58.492Z,8.94
2023-04-29T21:59:25.347Z,8.88
2023-04-29T22:02:00.239Z,8.84
2023-04-29T22:04:28.351Z,8.78
2023-04-29T22:06:59.116Z,8.72
2023-04-29T22:09:26.051Z,8.65
2023-04-29T22:11:53.213Z,8.61
2023-04-29T22:14:20.076Z,8.53
2023-04-29T22:16:47.218Z,8.44
2023-04-29T22:19:14.172Z,8.40
2023-04-29T22:21:43.185Z,8.35
2023-04-29T22:24:10.332Z,8.33
2023-04-29T22:26:37.594Z,8.29
2023-04-29T22:29:04.636Z,8.30
2023-04-29T22:31:31.895Z,8.29
2023-04-29T22:33:58.805Z,8.30
2023-04-29T22:36:26.076Z,8.29
2023-04-29T22:38:52.952Z,8.29
2023-04-29T22:41:20.080Z,8.32
2023-04-29T22:43:46.909Z,8.34
2023-04-29T22:46:14.074Z,8.35
2023-04-29T22:48:41.015Z,8.38
2023-04-29T22:51:08.177Z,8.42
2023-04-29T22:53:35.066Z,8.42
2023-04-29T22:56:02.266Z,8.45
2023-04-29T22:58:29.197Z,8.48
2023-04-29T23:00:57.916Z,8.49
2023-04-29T23:03:25.349Z,8.48
2023-04-29T23:05:57.227Z,8.47
2023-04-29T23:08:24.065Z,8.47
2023-04-29T23:10:51.258Z,8.42
2023-04-29T23:13:18.203Z,8.38
2023-04-29T23:15:45.625Z,8.38
2023-04-29T23:18:12.778Z,8.37
2023-04-29T23:20:40.060Z,8.37
2023-04-29T23:23:06.926Z,8.39
2023-04-29T23:25:34.721Z,8.42
2023-04-29T23:28:01.670Z,8.44
2023-04-29T23:30:28.865Z,8.44
2023-04-29T23:32:55.982Z,8.46
2023-04-29T23:35:23.258Z,8.46
2023-04-29T23:37:50.061Z,8.49
2023-04-29T23:40:17.247Z,8.52
2023-04-29T23:42:44.055Z,8.56
2023-04-29T23:45:11.244Z,8.61
2023-04-29T23:47:38.318Z,8.63
2023-04-29T23:50:06.566Z,8.66
2023-04-29T23:52:33.369Z,8.68
2023-04-29T23:55:00.578Z,8.69
2023-04-29T23:57:27.452Z,8.63
2023-04-29T23:59:54.891Z,8.63
